Time;durP1;ratioP1;P1;durP2;ratioP2;P2;SDS_P1;SDS_P2;PMS_P1;PMS_P2;Temp;Humidity;BMP_temperature;BMP_pressure;BME280_temperature;BME280_humidity;BME280_pressure;Samples;Min_cycle;Max_cycle;Signal;HPM_P1;HPM_P2
2022/09/12 00:00:51;;;;;;;9.10;8.07;;;;;;;;;;5032084;28;20049;-69
2022/09/12 00:03:17;;;;;;;10.43;8.63;;;;;;;;;;5032250;28;20053;-68
2022/09/12 00:05:46;;;;;;;10.18;8.55;;;;;;;;;;5014579;28;20491;-69
2022/09/12 00:08:13;;;;;;;9.93;8.15;;;;;;;;;;5031926;28;20049;-68
2022/09/12 00:10:40;;;;;;;12.32;8.48;;;;;;;;;;5031953;28;20057;-68
2022/09/12 00:13:07;;;;;;;10.50;9.27;;;;;;;;;;4998547;28;20483;-69
2022/09/12 00:15:38;;;;;;;9.98;8.98;;;;;;;;;;4982062;28;20053;-68
2022/09/12 00:18:05;;;;;;;9.50;8.50;;;;;;;;;;4998413;28;20060;-69
2022/09/12 00:20:32;;;;;;;9.48;8.52;;;;;;;;;;5014455;28;20080;-69
2022/09/12 00:22:59;;;;;;;9.52;8.68;;;;;;;;;;5032078;28;20045;-68
2022/09/12 00:25:26;;;;;;;11.75;9.52;;;;;;;;;;5031966;28;20412;-69
2022/09/12 00:27:53;;;;;;;9.43;8.43;;;;;;;;;;5014181;28;20401;-69
2022/09/12 00:30:19;;;;;;;12.27;9.65;;;;;;;;;;5014170;28;20045;-68
2022/09/12 00:32:46;;;;;;;11.20;8.85;;;;;;;;;;5014295;28;20461;-68
2022/09/12 00:35:13;;;;;;;10.73;9.60;;;;;;;;;;5031679;28;20045;-69
2022/09/12 00:37:39;;;;;;;10.98;9.18;;;;;;;;;;5031808;28;20068;-68
2022/09/12 00:40:06;;;;;;;9.60;8.65;;;;;;;;;;5031440;28;20554;-67
2022/09/12 00:42:33;;;;;;;9.88;8.75;;;;;;;;;;5031646;28;20488;-69
2022/09/12 00:45:00;;;;;;;13.85;9.20;;;;;;;;;;5014145;28;20119;-68
2022/09/12 00:47:27;;;;;;;9.25;8.23;;;;;;;;;;5031615;28;20049;-68
2022/09/12 00:50:02;;;;;;;10.43;8.30;;;;;;;;;;5013927;28;20478;-68
2022/09/12 00:52:33;;;;;;;9.98;8.68;;;;;;;;;;5015274;28;20081;-68
2022/09/12 00:55:10;;;;;;;12.07;9.30;;;;;;;;;;5031614;28;20053;-68
2022/09/12 00:57:51;;;;;;;10.20;8.88;;;;;;;;;;5013968;28;20124;-69
2022/09/12 01:00:20;;;;;;;10.00;8.88;;;;;;;;;;5030187;28;20487;-69
2022/09/12 01:03:11;;;;;;;9.70;8.70;;;;;;;;;;4999888;28;20045;-68
2022/09/12 01:05:43;;;;;;;10.90;8.95;;;;;;;;;;5013280;28;20068;-68
2022/09/12 01:08:09;;;;;;;9.65;8.65;;;;;;;;;;5018734;28;20049;-69
2022/09/12 01:10:37;;;;;;;11.52;9.25;;;;;;;;;;5001475;28;20049;-68
2022/09/12 01:13:05;;;;;;;12.93;9.85;;;;;;;;;;5001702;28;20089;-68
2022/09/12 01:15:32;;;;;;;10.32;9.23;;;;;;;;;;5035165;28;20091;-69
2022/09/12 01:18:11;;;;;;;11.45;9.27;;;;;;;;;;5017626;28;20103;-68
2022/09/12 01:20:49;;;;;;;10.25;9.25;;;;;;;;;;5017586;28;20119;-68
2022/09/12 01:23:19;;;;;;;12.65;10.05;;;;;;;;;;5018032;28;20466;-69
2022/09/12 01:25:59;;;;;;;11.93;9.07;;;;;;;;;;5035213;28;20132;-68
2022/09/12 01:28:35;;;;;;;11.77;9.23;;;;;;;;;;5017311;28;20045;-69
2022/09/12 01:31:24;;;;;;;10.55;9.48;;;;;;;;;;5035209;28;20056;-68
2022/09/12 01:34:09;;;;;;;12.18;8.75;;;;;;;;;;5001374;28;20140;-68
2022/09/12 01:36:47;;;;;;;11.35;9.00;;;;;;;;;;5003217;28;20052;-68
2022/09/12 01:39:35;;;;;;;10.40;9.25;;;;;;;;;;5034732;28;20480;-68
2022/09/12 01:42:25;;;;;;;10.90;9.23;;;;;;;;;;5017553;28;20490;-69
2022/09/12 01:45:03;;;;;;;10.80;9.65;;;;;;;;;;5019558;28;20456;-67
2022/09/12 01:47:39;;;;;;;9.35;8.45;;;;;;;;;;5017086;28;20103;-68
2022/09/12 01:50:07;;;;;;;11.40;9.85;;;;;;;;;;5017176;28;20045;-68
2022/09/12 01:52:33;;;;;;;11.18;9.43;;;;;;;;;;5017111;28;20089;-67
2022/09/12 01:55:40;;;;;;;10.35;9.30;;;;;;;;;;5034688;28;20482;-68
2022/09/12 01:58:19;;;;;;;11.93;8.90;;;;;;;;;;4998386;28;20466;-68
2022/09/12 02:00:48;;;;;;;11.82;9.98;;;;;;;;;;5017706;28;20103;-68
2022/09/12 02:03:18;;;;;;;10.48;9.38;;;;;;;;;;5034775;28;20416;-69
2022/09/12 02:05:52;;;;;;;11.48;9.20;;;;;;;;;;5001111;28;20045;-68
2022/09/12 02:08:47;;;;;;;11.88;9.57;;;;;;;;;;5000649;28;20559;-68
2022/09/12 02:11:13;;;;;;;12.95;11.25;;;;;;;;;;5009860;28;20049;-68
2022/09/12 02:13:56;;;;;;;13.35;11.95;;;;;;;;;;5000259;28;20132;-68
2022/09/12 02:16:36;;;;;;;14.80;11.03;;;;;;;;;;5000704;28;20088;-69
2022/09/12 02:19:10;;;;;;;13.00;11.02;;;;;;;;;;5016461;28;20424;-68
2022/09/12 02:21:36;;;;;;;12.95;11.50;;;;;;;;;;5001195;28;20107;-69
2022/09/12 02:24:03;;;;;;;13.57;10.77;;;;;;;;;;5000243;28;20084;-69
2022/09/12 02:27:03;;;;;;;12.07;10.70;;;;;;;;;;5016731;28;20084;-69
2022/09/12 02:29:30;;;;;;;13.45;10.23;;;;;;;;;;5012669;28;20136;-69
2022/09/12 02:32:04;;;;;;;12.10;10.30;;;;;;;;;;5000140;28;20157;-68
2022/09/12 02:34:42;;;;;;;12.38;11.07;;;;;;;;;;5016412;28;20057;-69
2022/09/12 02:37:45;;;;;;;11.15;10.00;;;;;;;;;;5033850;28;20085;-69
2022/09/12 02:40:11;;;;;;;11.10;9.90;;;;;;;;;;5018257;28;20104;-68
2022/09/12 02:42:38;;;;;;;15.00;9.75;;;;;;;;;;5016295;28;20045;-69
2022/09/12 02:45:05;;;;;;;13.50;11.15;;;;;;;;;;5016241;28;20469;-67
2022/09/12 02:47:42;;;;;;;12.45;11.15;;;;;;;;;;5016172;28;20049;-68
2022/09/12 02:50:08;;;;;;;14.70;10.60;;;;;;;;;;5000023;28;20464;-69
2022/09/12 02:52:35;;;;;;;12.05;10.57;;;;;;;;;;4999882;28;20099;-68
2022/09/12 02:55:04;;;;;;;12.25;10.20;;;;;;;;;;5015965;28;20084;-69
2022/09/12 02:57:30;;;;;;;14.13;11.32;;;;;;;;;;4983586;28;20045;-69
2022/09/12 02:59:59;;;;;;;11.93;10.15;;;;;;;;;;5015731;28;20126;-68
2022/09/12 03:02:57;;;;;;;11.80;9.27;;;;;;;;;;4999862;28;20057;-68
2022/09/12 03:05:30;;;;;;;11.70;10.50;;;;;;;;;;5015854;28;20052;-68
2022/09/12 03:08:09;;;;;;;13.38;11.07;;;;;;;;;;5000202;28;20119;-68
2022/09/12 03:10:44;;;;;;;11.13;9.82;;;;;;;;;;5033252;28;20112;-68
2022/09/12 03:13:20;;;;;;;11.98;9.98;;;;;;;;;;5033326;28;20538;-69
2022/09/12 03:15:52;;;;;;;11.07;9.55;;;;;;;;;;5015662;28;20140;-68
2022/09/12 03:18:31;;;;;;;14.85;10.73;;;;;;;;;;5032872;28;20084;-67
2022/09/12 03:21:12;;;;;;;11.27;9.95;;;;;;;;;;5032962;28;20081;-68
2022/09/12 03:23:44;;;;;;;11.32;10.23;;;;;;;;;;4999956;28;20084;-69
2022/09/12 03:26:14;;;;;;;10.85;9.75;;;;;;;;;;5014895;28;20129;-69
2022/09/12 03:28:41;;;;;;;14.55;12.05;;;;;;;;;;5015480;28;20049;-69
2022/09/12 03:31:15;;;;;;;12.90;10.68;;;;;;;;;;4999159;28;20049;-69
2022/09/12 03:33:42;;;;;;;13.30;11.00;;;;;;;;;;5032673;28;20077;-69
2022/09/12 03:36:29;;;;;;;11.73;10.52;;;;;;;;;;4999062;28;20045;-69
2022/09/12 03:38:56;;;;;;;13.23;11.13;;;;;;;;;;5015070;28;20049;-69
2022/09/12 03:41:22;;;;;;;13.07;11.43;;;;;;;;;;5015074;28;20049;-68
2022/09/12 03:43:49;;;;;;;13.98;10.98;;;;;;;;;;5032760;28;20119;-69
2022/09/12 03:46:16;;;;;;;11.40;10.20;;;;;;;;;;5032509;28;20149;-69
2022/09/12 03:48:42;;;;;;;13.02;10.13;;;;;;;;;;5032505;28;20476;-68
2022/09/12 03:51:09;;;;;;;13.15;10.80;;;;;;;;;;5014925;28;20526;-69
2022/09/12 03:53:36;;;;;;;12.65;11.35;;;;;;;;;;5015075;28;20053;-69
2022/09/12 03:56:10;;;;;;;11.65;10.45;;;;;;;;;;5014698;28;20568;-68
2022/09/12 03:58:37;;;;;;;13.27;11.00;;;;;;;;;;5014700;28;20479;-68
2022/09/12 04:01:11;;;;;;;13.02;11.63;;;;;;;;;;4998730;28;20436;-68
2022/09/12 04:03:39;;;;;;;12.35;10.27;;;;;;;;;;4999185;28;20060;-69
2022/09/12 04:06:06;;;;;;;14.23;11.43;;;;;;;;;;5015027;28;20045;-68
2022/09/12 04:08:34;;;;;;;11.60;10.40;;;;;;;;;;5014689;28;20451;-69
2022/09/12 04:11:02;;;;;;;11.55;10.18;;;;;;;;;;5014767;28;20057;-68
2022/09/12 04:13:29;;;;;;;10.93;9.75;;;;;;;;;;5014674;28;20500;-68
2022/09/12 04:15:57;;;;;;;12.77;11.20;;;;;;;;;;5014776;28;20045;-68
2022/09/12 04:18:24;;;;;;;12.20;10.90;;;;;;;;;;5014757;28;20050;-69
2022/09/12 04:20:51;;;;;;;11.38;10.23;;;;;;;;;;4998241;28;20141;-67
2022/09/12 04:23:17;;;;;;;11.30;9.88;;;;;;;;;;5032197;28;20076;-68
2022/09/12 04:25:52;;;;;;;9.27;8.38;;;;;;;;;;4998130;28;20046;-68
2022/09/12 04:28:19;;;;;;;11.07;9.57;;;;;;;;;;5015728;28;20178;-69
2022/09/12 04:30:45;;;;;;;9.90;8.90;;;;;;;;;;5032598;28;20081;-68
2022/09/12 04:33:12;;;;;;;9.88;8.98;;;;;;;;;;5014506;28;20489;-68
2022/09/12 04:35:38;;;;;;;9.23;8.32;;;;;;;;;;5014464;28;20080;-69
2022/09/12 04:38:05;;;;;;;10.48;8.48;;;;;;;;;;5031455;28;20085;-67
2022/09/12 04:40:32;;;;;;;9.98;8.98;;;;;;;;;;5031736;28;20492;-70
2022/09/12 04:42:58;;;;;;;10.05;9.05;;;;;;;;;;5031907;28;20049;-68
2022/09/12 04:45:25;;;;;;;10.35;8.60;;;;;;;;;;5031893;28;20178;-69
2022/09/12 04:47:52;;;;;;;8.73;7.93;;;;;;;;;;5031616;28;20053;-68
2022/09/12 04:50:19;;;;;;;8.98;8.07;;;;;;;;;;4998001;28;20077;-68
2022/09/12 04:52:52;;;;;;;10.43;8.73;;;;;;;;;;5031614;28;20049;-68
2022/09/12 04:55:20;;;;;;;9.10;8.18;;;;;;;;;;5014219;28;20045;-68
2022/09/12 04:57:46;;;;;;;9.05;7.82;;;;;;;;;;5014250;28;20458;-67
2022/09/12 05:00:14;;;;;;;8.15;7.35;;;;;;;;;;5014023;28;20084;-68
2022/09/12 05:02:41;;;;;;;7.72;6.97;;;;;;;;;;5014180;28;20050;-67
2022/09/12 05:05:09;;;;;;;8.60;7.63;;;;;;;;;;4998299;28;20068;-67
2022/09/12 05:07:35;;;;;;;8.52;7.63;;;;;;;;;;5014027;28;20107;-67
2022/09/12 05:10:03;;;;;;;9.02;8.13;;;;;;;;;;5031289;28;20462;-67
2022/09/12 05:12:30;;;;;;;9.05;7.97;;;;;;;;;;5031632;28;20077;-68
2022/09/12 05:14:57;;;;;;;11.05;8.10;;;;;;;;;;4997715;28;20141;-68
2022/09/12 05:17:23;;;;;;;9.68;8.70;;;;;;;;;;5031297;28;20045;-67
2022/09/12 05:19:50;;;;;;;9.05;8.15;;;;;;;;;;5029922;28;20307;-69
2022/09/12 05:22:16;;;;;;;9.82;8.10;;;;;;;;;;5031619;28;20049;-68
2022/09/12 05:24:43;;;;;;;9.90;8.00;;;;;;;;;;5013994;28;20140;-68
2022/09/12 05:27:15;;;;;;;8.68;7.88;;;;;;;;;;5031572;28;20124;-69
2022/09/12 05:29:42;;;;;;;8.90;8.00;;;;;;;;;;5013662;28;20528;-68
2022/09/12 05:32:11;;;;;;;8.38;7.57;;;;;;;;;;5031309;28;20057;-68
2022/09/12 05:34:39;;;;;;;9.18;8.07;;;;;;;;;;4998074;28;20099;-68
2022/09/12 05:37:05;;;;;;;10.48;8.40;;;;;;;;;;5013641;28;20061;-68
2022/09/12 05:39:32;;;;;;;8.95;7.80;;;;;;;;;;5013645;28;20053;-69
2022/09/12 05:41:59;;;;;;;9.70;7.70;;;;;;;;;;5031238;28;20050;-68
2022/09/12 05:44:27;;;;;;;8.88;7.97;;;;;;;;;;4997613;28;20057;-68
2022/09/12 05:46:53;;;;;;;10.85;8.13;;;;;;;;;;5031260;28;20049;-68
2022/09/12 05:49:20;;;;;;;10.10;8.27;;;;;;;;;;5031891;28;20045;-69
2022/09/12 05:51:47;;;;;;;15.45;9.02;;;;;;;;;;5057894;23;20047;-70
2022/09/12 05:54:16;;;;;;;19.50;9.80;;;;;;;;;;5034930;28;20072;-70
2022/09/12 05:56:43;;;;;;;11.90;9.15;;;;;;;;;;5034853;28;20041;-70
2022/09/12 05:59:15;;;;;;;13.77;9.57;;;;;;;;;;5034762;28;20415;-70
2022/09/12 06:01:42;;;;;;;13.82;10.57;;;;;;;;;;5034853;28;20099;-70
2022/09/12 06:04:09;;;;;;;10.98;9.75;;;;;;;;;;5034881;28;20141;-70
2022/09/12 06:06:40;;;;;;;13.77;10.40;;;;;;;;;;5034923;28;20069;-70
2022/09/12 06:09:07;;;;;;;10.52;9.40;;;;;;;;;;5034737;28;20068;-70
2022/09/12 06:11:36;;;;;;;11.32;9.38;;;;;;;;;;5034718;28;20184;-70
2022/09/12 06:14:02;;;;;;;11.63;9.52;;;;;;;;;;5035163;28;20136;-70
2022/09/12 06:16:31;;;;;;;11.43;10.27;;;;;;;;;;5034551;28;20492;-70
2022/09/12 06:19:00;;;;;;;13.13;10.45;;;;;;;;;;5017058;28;20053;-70
2022/09/12 06:21:28;;;;;;;12.00;10.68;;;;;;;;;;5034720;28;20084;-70
2022/09/12 06:23:57;;;;;;;10.73;9.63;;;;;;;;;;5017251;28;20500;-70
2022/09/12 06:26:24;;;;;;;11.57;10.15;;;;;;;;;;5034564;28;20045;-70
2022/09/12 06:28:52;;;;;;;22.58;10.35;;;;;;;;;;5034231;28;20059;-70
2022/09/12 06:31:24;;;;;;;12.55;11.02;;;;;;;;;;5034256;28;20076;-70
2022/09/12 06:33:53;;;;;;;14.88;10.02;;;;;;;;;;5034529;28;20089;-70
2022/09/12 06:36:20;;;;;;;20.40;10.10;;;;;;;;;;5034468;28;20072;-70
2022/09/12 06:38:47;;;;;;;18.02;10.85;;;;;;;;;;5034206;28;20456;-70
2022/09/12 06:41:14;;;;;;;11.93;10.70;;;;;;;;;;5034194;28;20068;-70
2022/09/12 06:43:41;;;;;;;11.52;10.32;;;;;;;;;;5034469;28;20103;-70
2022/09/12 06:46:09;;;;;;;13.38;11.10;;;;;;;;;;5016878;28;20095;-70
2022/09/12 06:48:36;;;;;;;15.50;12.02;;;;;;;;;;5034213;28;20053;-69
2022/09/12 06:51:10;;;;;;;15.13;12.80;;;;;;;;;;5034021;28;20046;-69
2022/09/12 06:53:37;;;;;;;14.10;12.60;;;;;;;;;;5034361;28;20053;-70
2022/09/12 06:56:07;;;;;;;17.10;13.45;;;;;;;;;;5034024;28;20068;-70
2022/09/12 06:58:34;;;;;;;13.40;12.02;;;;;;;;;;5033992;28;20136;-70
2022/09/12 07:01:02;;;;;;;15.85;12.63;;;;;;;;;;5033893;28;20057;-70
2022/09/12 07:03:28;;;;;;;17.60;14.05;;;;;;;;;;5034140;28;20595;-69
2022/09/12 07:05:55;;;;;;;18.85;14.75;;;;;;;;;;5033874;28;20092;-70
2022/09/12 07:08:22;;;;;;;16.38;14.63;;;;;;;;;;5033406;28;20099;-70
2022/09/12 07:10:48;;;;;;;18.23;14.68;;;;;;;;;;5033595;28;20052;-70
2022/09/12 07:13:15;;;;;;;17.75;15.32;;;;;;;;;;5033579;28;20504;-70
2022/09/12 07:15:41;;;;;;;20.27;14.32;;;;;;;;;;5033586;28;20155;-69
2022/09/12 07:18:09;;;;;;;17.98;14.02;;;;;;;;;;5033614;28;20136;-70
2022/09/12 07:20:36;;;;;;;18.08;14.35;;;;;;;;;;5016173;28;20566;-70
2022/09/12 07:23:02;;;;;;;15.27;13.68;;;;;;;;;;5033491;28;20646;-70
2022/09/12 07:25:29;;;;;;;17.20;14.85;;;;;;;;;;5033963;28;20069;-70
2022/09/12 07:27:55;;;;;;;18.35;14.80;;;;;;;;;;5033927;28;20049;-69
2022/09/12 07:30:22;;;;;;;19.38;13.85;;;;;;;;;;5033346;28;20045;-70
2022/09/12 07:32:52;;;;;;;20.52;14.02;;;;;;;;;;5033410;28;20053;-70
2022/09/12 07:35:19;;;;;;;15.85;14.05;;;;;;;;;;5033202;28;20049;-70
2022/09/12 07:37:46;;;;;;;15.65;13.05;;;;;;;;;;5036104;28;20052;-70
2022/09/12 07:40:13;;;;;;;15.50;13.88;;;;;;;;;;5039074;28;20050;-70
2022/09/12 07:42:40;;;;;;;15.15;12.07;;;;;;;;;;5038428;28;20060;-70
2022/09/12 07:45:07;;;;;;;13.35;11.95;;;;;;;;;;5039358;28;20474;-70
2022/09/12 07:47:34;;;;;;;14.60;12.50;;;;;;;;;;5039499;28;20072;-70
2022/09/12 07:50:01;;;;;;;11.52;10.45;;;;;;;;;;5037290;28;20057;-70
2022/09/12 07:52:28;;;;;;;14.75;9.82;;;;;;;;;;5033317;28;20492;-69
2022/09/12 07:54:54;;;;;;;9.77;8.80;;;;;;;;;;5032984;28;20053;-69
2022/09/12 07:57:21;;;;;;;10.82;8.98;;;;;;;;;;5033107;28;20053;-70
2022/09/12 07:59:48;;;;;;;12.10;8.70;;;;;;;;;;5033758;28;20049;-70
2022/09/12 08:02:18;;;;;;;9.82;8.85;;;;;;;;;;5032745;28;20077;-69
2022/09/12 08:04:46;;;;;;;9.15;8.18;;;;;;;;;;5032808;28;20050;-69
2022/09/12 08:07:14;;;;;;;8.90;7.80;;;;;;;;;;5032940;28;20095;-69
2022/09/12 08:09:40;;;;;;;8.73;7.93;;;;;;;;;;5032722;28;20141;-69
2022/09/12 08:12:07;;;;;;;10.68;9.55;;;;;;;;;;5032295;28;20053;-69
2022/09/12 08:14:33;;;;;;;11.77;8.95;;;;;;;;;;5032833;28;20128;-69
2022/09/12 08:17:00;;;;;;;12.70;9.35;;;;;;;;;;5033264;28;20064;-69
2022/09/12 08:19:26;;;;;;;13.82;8.90;;;;;;;;;;5032398;28;20089;-69
2022/09/12 08:21:53;;;;;;;13.57;9.43;;;;;;;;;;5032734;28;20132;-69
2022/09/12 08:24:20;;;;;;;13.38;8.73;;;;;;;;;;5032602;28;20072;-69
2022/09/12 08:26:46;;;;;;;10.93;8.48;;;;;;;;;;5032545;28;20176;-69
2022/09/12 08:29:13;;;;;;;8.57;7.75;;;;;;;;;;5032355;28;20076;-70
2022/09/12 08:31:41;;;;;;;11.05;8.40;;;;;;;;;;5032218;28;20099;-69
2022/09/12 08:34:08;;;;;;;8.63;7.82;;;;;;;;;;5032760;28;20455;-69
2022/09/12 08:36:35;;;;;;;9.50;7.47;;;;;;;;;;5032431;28;20132;-69
2022/09/12 08:39:04;;;;;;;7.75;6.47;;;;;;;;;;5032436;28;20107;-69
2022/09/12 08:41:33;;;;;;;7.00;6.30;;;;;;;;;;5032223;28;20053;-69
2022/09/12 08:44:41;;;;;;;8.10;6.57;;;;;;;;;;5032174;28;20424;-69
2022/09/12 08:47:21;;;;;;;7.40;6.72;;;;;;;;;;4971294;28;20534;-69
2022/09/12 08:49:59;;;;;;;9.50;6.80;;;;;;;;;;4971409;28;20133;-69
2022/09/12 08:52:49;;;;;;;7.45;6.75;;;;;;;;;;5010714;28;20136;-69
2022/09/12 08:55:22;;;;;;;9.68;6.05;;;;;;;;;;5032361;28;20114;-69
2022/09/12 08:57:48;;;;;;;9.32;6.25;;;;;;;;;;5014733;28;20467;-67
2022/09/12 09:00:15;;;;;;;5.90;5.32;;;;;;;;;;5030727;28;20079;-67
2022/09/12 09:02:54;;;;;;;7.32;5.47;;;;;;;;;;5015098;28;20061;-67
2022/09/12 09:05:55;;;;;;;5.75;5.25;;;;;;;;;;5018753;28;20049;-67
2022/09/12 09:08:40;;;;;;;7.07;4.70;;;;;;;;;;5042554;28;20570;-68
2022/09/12 09:11:07;;;;;;;6.05;5.07;;;;;;;;;;5031978;28;20053;-67
2022/09/12 09:16:33;;;;;;;7.65;4.32;;;;;;;;;;5032111;28;20104;-69
2022/09/12 09:19:03;;;;;;;4.80;4.40;;;;;;;;;;5014617;28;20058;-67
2022/09/12 09:21:35;;;;;;;4.38;3.97;;;;;;;;;;5014550;28;20073;-69
2022/09/12 09:24:10;;;;;;;4.50;3.60;;;;;;;;;;5015473;28;20104;-68
2022/09/12 09:26:59;;;;;;;4.00;3.70;;;;;;;;;;5002480;28;20050;-68
2022/09/12 09:29:33;;;;;;;4.38;4.07;;;;;;;;;;5035402;28;20084;-68
2022/09/12 09:32:00;;;;;;;4.03;3.63;;;;;;;;;;5035520;28;20105;-67
2022/09/12 09:34:30;;;;;;;4.15;3.40;;;;;;;;;;5001817;28;20575;-68
2022/09/12 09:37:33;;;;;;;3.63;3.17;;;;;;;;;;5035604;28;20053;-68
2022/09/12 09:40:09;;;;;;;3.75;3.15;;;;;;;;;;5017862;28;20484;-68
2022/09/12 09:42:52;;;;;;;3.80;3.50;;;;;;;;;;5035780;28;20049;-68
2022/09/12 09:45:20;;;;;;;3.63;3.17;;;;;;;;;;5035324;28;20052;-68
2022/09/12 09:48:03;;;;;;;3.58;3.15;;;;;;;;;;5017893;28;20084;-68
2022/09/12 09:50:29;;;;;;;4.10;3.78;;;;;;;;;;5001948;28;20140;-68
2022/09/12 09:52:56;;;;;;;3.50;3.20;;;;;;;;;;5035117;28;20132;-67
2022/09/12 09:55:26;;;;;;;3.67;3.00;;;;;;;;;;5035335;28;20140;-68
2022/09/12 09:57:52;;;;;;;3.15;2.85;;;;;;;;;;5017757;28;20122;-68
2022/09/12 10:00:30;;;;;;;4.82;2.92;;;;;;;;;;5035032;28;20088;-68
2022/09/12 10:03:09;;;;;;;3.20;3.00;;;;;;;;;;5035152;28;20075;-68
2022/09/12 10:05:52;;;;;;;4.13;2.50;;;;;;;;;;5035135;28;20054;-68
2022/09/12 10:08:39;;;;;;;2.50;2.30;;;;;;;;;;5017353;28;20045;-68
2022/09/12 10:11:14;;;;;;;2.10;1.90;;;;;;;;;;5016581;28;20112;-68
2022/09/12 10:13:42;;;;;;;2.45;2.25;;;;;;;;;;5018439;28;20128;-68
2022/09/12 10:16:29;;;;;;;2.30;2.10;;;;;;;;;;5017789;28;20095;-68
2022/09/12 10:18:57;;;;;;;3.50;2.50;;;;;;;;;;5017285;28;20085;-68
2022/09/12 10:21:32;;;;;;;12.05;2.92;;;;;;;;;;5034665;28;20053;-68
2022/09/12 10:24:15;;;;;;;2.38;2.10;;;;;;;;;;5034593;28;20049;-68
2022/09/12 10:26:42;;;;;;;2.28;2.05;;;;;;;;;;5016969;28;20463;-68
2022/09/12 10:29:17;;;;;;;2.28;2.05;;;;;;;;;;5017227;28;20136;-68
2022/09/12 10:31:56;;;;;;;2.25;2.15;;;;;;;;;;5018137;28;20127;-68
2022/09/12 10:34:24;;;;;;;2.42;2.10;;;;;;;;;;5000911;28;20111;-68
2022/09/12 10:36:53;;;;;;;3.42;2.10;;;;;;;;;;5016414;28;20084;-68
2022/09/12 10:39:19;;;;;;;2.10;1.90;;;;;;;;;;5034118;28;20145;-68
2022/09/12 10:41:46;;;;;;;3.80;2.25;;;;;;;;;;5016799;28;20053;-68
2022/09/12 10:44:18;;;;;;;4.57;2.17;;;;;;;;;;5034194;28;20140;-68
2022/09/12 10:46:45;;;;;;;2.60;2.10;;;;;;;;;;5016495;28;20111;-68
2022/09/12 10:49:27;;;;;;;2.53;2.33;;;;;;;;;;5033823;28;20085;-68
2022/09/12 10:51:55;;;;;;;5.40;2.70;;;;;;;;;;5033757;28;20080;-68
2022/09/12 10:54:23;;;;;;;3.58;2.10;;;;;;;;;;5034035;28;20710;-68
2022/09/12 10:56:56;;;;;;;4.10;2.28;;;;;;;;;;5033972;28;20103;-68
2022/09/12 10:59:35;;;;;;;;;;;;;;;;;;5017225;28;20049;-68
2022/09/12 11:02:25;;;;;;;2.35;2.13;;;;;;;;;;5033784;28;19921;-68
2022/09/12 11:05:04;;;;;;;2.60;2.40;;;;;;;;;;5017497;28;20046;-68
2022/09/12 11:08:13;;;;;;;2.53;2.00;;;;;;;;;;5017512;28;20057;-68
2022/09/12 11:11:07;;;;;;;3.83;1.98;;;;;;;;;;5033560;28;20103;-68
2022/09/12 11:13:49;;;;;;;2.80;2.00;;;;;;;;;;5033834;28;20084;-68
2022/09/12 11:16:40;;;;;;;2.30;1.57;;;;;;;;;;5033473;28;20100;-68
2022/09/12 11:19:42;;;;;;;2.03;1.83;;;;;;;;;;5033568;28;20527;-68
2022/09/12 11:22:28;;;;;;;1.90;1.80;;;;;;;;;;5033840;28;20046;-68
2022/09/12 11:24:57;;;;;;;2.42;2.08;;;;;;;;;;5033499;28;20045;-69
2022/09/12 11:27:36;;;;;;;2.33;2.05;;;;;;;;;;5033211;28;20496;-68
2022/09/12 11:30:21;;;;;;;4.35;2.85;;;;;;;;;;5016090;28;20045;-68
2022/09/12 11:32:58;;;;;;;5.68;2.53;;;;;;;;;;5033675;28;20128;-68
2022/09/12 11:35:30;;;;;;;3.55;2.72;;;;;;;;;;5033520;28;20530;-68
2022/09/12 11:38:07;;;;;;;2.33;2.00;;;;;;;;;;5032996;28;20042;-68
2022/09/12 11:40:33;;;;;;;2.03;1.80;;;;;;;;;;5033380;28;20045;-68
2022/09/12 11:43:22;;;;;;;1.70;1.60;;;;;;;;;;5033061;28;20522;-69
2022/09/12 11:45:50;;;;;;;3.53;2.65;;;;;;;;;;5018196;28;20053;-68
2022/09/12 11:48:37;;;;;;;2.00;1.88;;;;;;;;;;5014562;28;20075;-69
2022/09/12 11:51:05;;;;;;;1.60;1.50;;;;;;;;;;5016101;28;20088;-68
2022/09/12 11:53:37;;;;;;;1.77;1.67;;;;;;;;;;5015574;28;20104;-68
2022/09/12 11:56:08;;;;;;;1.40;1.30;;;;;;;;;;5015605;28;20084;-68
2022/09/12 11:58:35;;;;;;;1.70;1.60;;;;;;;;;;4999604;28;20045;-68
2022/09/12 12:01:11;;;;;;;1.30;1.20;;;;;;;;;;5033459;28;20088;-68
2022/09/12 12:03:43;;;;;;;1.40;1.30;;;;;;;;;;5015493;28;20050;-68
2022/09/12 12:06:18;;;;;;;1.30;1.20;;;;;;;;;;5015177;28;20053;-68
2022/09/12 12:08:45;;;;;;;1.30;1.20;;;;;;;;;;5015651;28;20128;-68
2022/09/12 12:11:14;;;;;;;2.60;1.95;;;;;;;;;;5015324;28;20128;-68
2022/09/12 12:13:50;;;;;;;2.45;1.30;;;;;;;;;;4999234;28;20088;-68
2022/09/12 12:16:16;;;;;;;4.63;2.78;;;;;;;;;;5015648;28;20061;-68
2022/09/12 12:18:43;;;;;;;2.00;1.50;;;;;;;;;;5032098;28;20095;-68
2022/09/12 12:21:30;;;;;;;2.40;1.45;;;;;;;;;;5015027;28;20137;-68
2022/09/12 12:24:07;;;;;;;3.05;2.42;;;;;;;;;;5017031;28;20080;-68
2022/09/12 12:26:40;;;;;;;1.38;1.27;;;;;;;;;;5015987;28;20054;-68
2022/09/12 12:29:15;;;;;;;1.65;1.20;;;;;;;;;;5032266;28;20085;-68
2022/09/12 12:31:57;;;;;;;1.08;1.00;;;;;;;;;;5032379;28;20056;-69
2022/09/12 12:34:26;;;;;;;1.38;1.20;;;;;;;;;;5032571;28;20072;-68
2022/09/12 12:36:53;;;;;;;1.33;1.23;;;;;;;;;;5032465;28;20432;-69
2022/09/12 12:39:32;;;;;;;1.10;1.00;;;;;;;;;;5014758;28;20124;-69
2022/09/12 12:41:59;;;;;;;0.95;0.93;;;;;;;;;;5032107;28;20057;-69
2022/09/12 12:44:43;;;;;;;1.55;0.80;;;;;;;;;;5032265;28;20505;-69
2022/09/12 12:47:21;;;;;;;3.05;0.80;;;;;;;;;;5032369;28;20053;-69
2022/09/12 12:49:54;;;;;;;0.90;0.90;;;;;;;;;;5015340;28;20475;-69
2022/09/12 12:52:21;;;;;;;1.00;1.00;;;;;;;;;;5015267;28;20140;-69
2022/09/12 12:54:53;;;;;;;3.40;0.98;;;;;;;;;;5032525;28;20195;-69
2022/09/12 12:57:25;;;;;;;2.08;0.80;;;;;;;;;;5032128;28;20523;-69
2022/09/12 13:00:05;;;;;;;0.77;0.70;;;;;;;;;;5018360;28;20123;-69
2022/09/12 13:02:35;;;;;;;0.70;0.70;;;;;;;;;;5019068;28;20049;-69
2022/09/12 13:05:05;;;;;;;1.30;1.00;;;;;;;;;;5019056;28;20416;-69
2022/09/12 13:07:35;;;;;;;0.60;0.60;;;;;;;;;;5019040;28;20081;-69
2022/09/12 13:10:03;;;;;;;1.52;0.70;;;;;;;;;;5002690;28;20172;-69
2022/09/12 13:12:33;;;;;;;3.60;0.85;;;;;;;;;;5002655;28;20046;-69
2022/09/12 13:15:00;;;;;;;0.70;0.70;;;;;;;;;;5018804;28;20057;-68
2022/09/12 13:17:37;;;;;;;1.33;0.75;;;;;;;;;;5018451;28;20515;-69
2022/09/12 13:20:32;;;;;;;1.15;1.02;;;;;;;;;;5002922;28;20049;-69
2022/09/12 13:22:59;;;;;;;1.65;0.80;;;;;;;;;;5021016;28;20119;-69
2022/09/12 13:25:33;;;;;;;0.60;0.60;;;;;;;;;;5035879;28;20061;-69
2022/09/12 13:28:17;;;;;;;0.65;0.52;;;;;;;;;;5035902;28;20132;-69
2022/09/12 13:30:46;;;;;;;0.80;0.60;;;;;;;;;;5002396;28;20057;-69
2022/09/12 13:33:22;;;;;;;1.13;0.60;;;;;;;;;;5035889;28;20423;-70
2022/09/12 13:36:20;;;;;;;0.65;0.65;;;;;;;;;;5018089;28;20317;-70
2022/09/12 13:39:17;;;;;;;1.58;0.60;;;;;;;;;;5035329;28;20492;-69
2022/09/12 13:42:02;;;;;;;1.38;0.80;;;;;;;;;;5017837;28;20088;-69
2022/09/12 13:44:29;;;;;;;1.02;0.65;;;;;;;;;;5018114;28;20538;-69
2022/09/12 13:46:59;;;;;;;0.73;0.60;;;;;;;;;;5035404;28;20091;-70
2022/09/12 13:49:34;;;;;;;0.65;0.60;;;;;;;;;;5001264;28;20544;-70
2022/09/12 13:52:08;;;;;;;1.80;0.80;;;;;;;;;;5017602;28;20054;-69
2022/09/12 13:54:36;;;;;;;0.70;0.70;;;;;;;;;;5035530;28;20535;-69
2022/09/12 13:57:04;;;;;;;0.47;0.47;;;;;;;;;;5001837;28;20076;-69
2022/09/12 13:59:38;;;;;;;0.70;0.57;;;;;;;;;;5034851;28;20064;-70
2022/09/12 14:02:22;;;;;;;0.95;0.93;;;;;;;;;;5035168;28;20056;-69
2022/09/12 14:05:09;;;;;;;0.50;0.50;;;;;;;;;;5035131;28;20053;-69
2022/09/12 14:07:58;;;;;;;0.68;0.50;;;;;;;;;;5020383;28;20095;-70
2022/09/12 14:10:30;;;;;;;0.50;0.50;;;;;;;;;;5033955;28;20137;-70
2022/09/12 14:12:57;;;;;;;0.50;0.50;;;;;;;;;;5035166;28;20049;-70
2022/09/12 14:15:27;;;;;;;3.53;0.60;;;;;;;;;;5001489;28;20088;-69
2022/09/12 14:17:58;;;;;;;0.50;0.50;;;;;;;;;;5034988;28;20045;-70
2022/09/12 14:20:25;;;;;;;1.03;0.90;;;;;;;;;;5034923;28;20049;-69
2022/09/12 14:22:52;;;;;;;0.40;0.40;;;;;;;;;;5017321;28;20099;-69
2022/09/12 14:25:21;;;;;;;0.50;0.40;;;;;;;;;;5017168;28;20053;-69
2022/09/12 14:27:51;;;;;;;0.80;0.70;;;;;;;;;;5017002;28;20082;-70
2022/09/12 14:30:20;;;;;;;1.17;0.60;;;;;;;;;;5033381;28;20140;-69
2022/09/12 14:33:05;;;;;;;0.68;0.60;;;;;;;;;;5034684;28;20062;-69
2022/09/12 14:35:32;;;;;;;0.65;0.60;;;;;;;;;;5034867;28;20115;-69
2022/09/12 14:38:07;;;;;;;0.47;0.45;;;;;;;;;;5016641;28;20528;-69
2022/09/12 14:40:40;;;;;;;0.75;0.75;;;;;;;;;;5033455;28;20049;-69
2022/09/12 14:43:19;;;;;;;1.23;0.60;;;;;;;;;;5017161;28;20053;-69
2022/09/12 14:45:54;;;;;;;0.75;0.60;;;;;;;;;;5017661;28;20108;-69
2022/09/12 14:48:21;;;;;;;0.75;0.70;;;;;;;;;;5016985;28;20052;-69
2022/09/12 14:50:51;;;;;;;1.25;0.55;;;;;;;;;;5016441;28;20468;-69
2022/09/12 14:53:17;;;;;;;1.85;0.73;;;;;;;;;;5017014;28;20073;-69
2022/09/12 14:55:48;;;;;;;3.13;0.60;;;;;;;;;;5034219;28;20058;-69
2022/09/12 14:58:25;;;;;;;1.17;0.80;;;;;;;;;;5034052;28;20095;-69
2022/09/12 15:00:52;;;;;;;0.65;0.60;;;;;;;;;;5016650;28;20089;-69
2022/09/12 15:03:42;;;;;;;0.50;0.50;;;;;;;;;;5033944;28;20154;-69
2022/09/12 15:06:24;;;;;;;0.75;0.68;;;;;;;;;;5027750;28;20570;-69